createdAt,value
2022-10-04T00:02:26.655Z,98649.73
2022-10-04T00:12:34.068Z,98652.78
2022-10-04T00:23:18.319Z,98644.25
2022-10-04T00:33:35.596Z,98637.47
2022-10-04T00:43:44.133Z,98628.38
2022-10-04T00:53:53.965Z,98629.45
2022-10-04T01:04:05.883Z,98633.34
2022-10-04T01:14:36.868Z,98626.92
2022-10-04T01:46:22.263Z,98610.70
2022-10-04T02:54:57.926Z,98614.50
2022-10-04T03:05:05.466Z,98619.33
2022-10-04T03:15:14.108Z,98621.27
2022-10-04T03:25:21.249Z,98624.96
2022-10-04T03:35:27.274Z,98627.83
2022-10-04T03:45:35.409Z,98629.09
2022-10-04T03:55:45.987Z,98633.39
2022-10-04T04:05:54.130Z,98637.56
2022-10-04T04:16:02.504Z,98647.26
2022-10-04T04:26:14.616Z,98647.66
2022-10-04T04:36:21.885Z,98650.06
2022-10-04T04:46:30.471Z,98661.80
2022-10-04T04:56:38.608Z,98666.92
2022-10-04T05:06:47.327Z,98676.48
2022-10-04T05:16:56.518Z,98692.58
2022-10-04T05:27:07.311Z,98698.27
2022-10-04T05:37:34.226Z,98707.01
2022-10-04T05:47:43.768Z,98718.77
2022-10-04T05:58:07.407Z,98736.98
2022-10-04T06:08:14.637Z,98750.02
2022-10-04T06:18:34.517Z,98758.36
2022-10-04T06:28:47.133Z,98773.30
2022-10-04T06:39:12.311Z,98782.82
2022-10-04T06:49:37.466Z,98790.23
2022-10-04T06:59:48.022Z,98805.06
2022-10-04T07:09:56.231Z,98824.40
2022-10-04T07:20:06.519Z,98840.71
2022-10-04T07:30:17.975Z,98843.75
2022-10-04T07:40:27.493Z,98850.77
2022-10-04T07:50:41.782Z,98855.18
2022-10-04T08:00:48.533Z,98862.55
2022-10-04T08:10:57.310Z,98873.80
2022-10-04T08:21:06.714Z,98878.51
2022-10-04T08:31:14.261Z,98887.66
2022-10-04T08:41:51.713Z,98901.00
2022-10-04T08:52:21.730Z,98906.96
2022-10-04T09:03:05.398Z,98917.98
2022-10-04T09:13:44.740Z,98922.84
2022-10-04T09:24:27.608Z,98931.88
2022-10-04T09:34:37.464Z,98940.15
2022-10-04T09:44:57.430Z,98948.37
2022-10-04T09:55:06.956Z,98957.52
2022-10-04T10:05:35.641Z,98973.60
2022-10-04T10:15:59.742Z,98983.54
2022-10-04T10:26:26.874Z,98993.58
2022-10-04T10:36:58.723Z,99006.17
2022-10-04T10:47:08.585Z,99019.09
2022-10-04T10:57:30.628Z,99019.36
2022-10-04T11:07:51.764Z,99021.77
2022-10-04T11:18:20.492Z,99028.66
2022-10-04T11:28:26.744Z,99035.08
2022-10-04T11:38:54.048Z,99041.09
2022-10-04T11:49:02.851Z,99052.08
2022-10-04T11:59:25.610Z,99050.91
2022-10-04T12:09:30.675Z,99048.81
2022-10-04T12:19:55.733Z,99058.52
2022-10-04T12:30:06.233Z,99060.30
2022-10-04T12:40:32.572Z,99062.36
2022-10-04T12:50:47.654Z,99059.38
2022-10-04T13:01:02.215Z,99060.27
2022-10-04T13:11:37.001Z,99070.59
2022-10-04T13:22:11.914Z,99072.55
2022-10-04T13:32:27.375Z,99079.23
2022-10-04T13:42:41.753Z,99084.27
2022-10-04T13:53:10.966Z,99085.34
2022-10-04T14:03:31.828Z,99077.56
2022-10-04T14:14:07.983Z,99077.95
2022-10-04T14:24:51.992Z,99078.73
2022-10-04T14:35:02.410Z,99077.64
2022-10-04T14:45:19.094Z,99090.27
2022-10-04T14:55:32.090Z,99091.86
2022-10-04T15:06:00.489Z,99097.72
2022-10-04T15:16:14.234Z,99100.33
2022-10-04T15:26:50.275Z,99102.77
2022-10-04T15:37:04.963Z,99107.39
2022-10-04T15:47:12.637Z,99113.36
2022-10-04T15:57:21.790Z,99121.84
2022-10-04T16:07:49.066Z,99133.95
2022-10-04T16:18:28.186Z,99144.73
2022-10-04T16:39:51.404Z,99156.14
2022-10-04T16:50:01.967Z,99159.39
2022-10-04T17:00:34.040Z,99164.54
2022-10-04T17:11:13.396Z,99173.07
2022-10-04T17:21:24.686Z,99182.91
2022-10-04T17:31:44.788Z,99197.96
2022-10-04T17:42:07.215Z,99199.98
2022-10-04T18:03:02.477Z,99202.70
2022-10-04T18:13:14.575Z,99214.96
2022-10-04T18:23:28.409Z,99224.61
2022-10-04T18:33:50.305Z,99240.90
2022-10-04T18:44:14.462Z,99243.48
2022-10-04T18:54:19.727Z,99239.52
2022-10-04T19:04:35.132Z,99239.18
2022-10-04T19:14:51.063Z,99255.83
2022-10-04T19:25:09.725Z,99270.60
2022-10-04T19:35:17.701Z,99267.12
2022-10-04T19:45:27.236Z,99275.78
2022-10-04T19:55:33.315Z,99290.27
2022-10-04T20:05:43.612Z,99296.63
2022-10-04T20:15:49.341Z,99306.30
2022-10-04T20:26:06.755Z,99309.09
2022-10-04T20:36:15.391Z,99312.23
2022-10-04T20:46:26.382Z,99327.72
2022-10-04T20:56:37.664Z,99329.61
2022-10-04T21:17:02.689Z,99339.02
2022-10-04T21:37:18.904Z,99352.85
2022-10-04T21:47:25.598Z,99342.73
2022-10-04T21:57:35.525Z,99337.90
2022-10-04T22:07:54.840Z,99336.27
2022-10-04T22:18:01.901Z,99331.14
2022-10-04T22:28:14.958Z,99342.52
2022-10-04T22:38:22.995Z,99344.61
2022-10-04T22:48:30.226Z,99347.78
2022-10-04T22:58:37.274Z,99351.77
2022-10-04T23:08:44.513Z,99367.05
2022-10-04T23:18:51.850Z,99382.25
2022-10-04T23:29:00.072Z,99385.76
2022-10-04T23:39:15.045Z,99381.30
2022-10-04T23:49:22.867Z,99375.89
2022-10-04T23:59:30.193Z,99365.87
